Time;durP1;ratioP1;P1;durP2;ratioP2;P2;SDS_P1;SDS_P2;PMS_P1;PMS_P2;Temp;Humidity;BMP_temperature;BMP_pressure;BME280_temperature;BME280_humidity;BME280_pressure;Samples;Min_cycle;Max_cycle;Signal;HPM_P1;HPM_P2
2023/07/02 00:01:26;;;;;;;7.73;3.13;;;;;;;;;;5027160;28;20455;-81
2023/07/02 00:03:54;;;;;;;5.27;3.23;;;;;;;;;;5030131;28;20469;-82
2023/07/02 00:06:21;;;;;;;6.10;3.50;;;;;;;;;;5026689;28;20462;-82
2023/07/02 00:08:50;;;;;;;5.27;3.03;;;;;;;;;;5026817;28;20462;-80
2023/07/02 00:11:19;;;;;;;6.37;2.80;;;;;;;;;;5029908;28;20539;-81
2023/07/02 00:13:47;;;;;;;9.13;3.47;;;;;;;;;;5026826;28;20487;-80
2023/07/02 00:16:14;;;;;;;10.00;3.03;;;;;;;;;;5026000;28;20459;-82
2023/07/02 00:18:42;;;;;;;8.70;2.93;;;;;;;;;;5030287;28;20447;-80
2023/07/02 00:21:13;;;;;;;5.97;2.53;;;;;;;;;;5029572;28;20439;-80
2023/07/02 00:23:41;;;;;;;8.03;2.37;;;;;;;;;;5026787;28;20807;-81
2023/07/02 00:26:10;;;;;;;5.33;2.90;;;;;;;;;;5029649;28;20487;-79
2023/07/02 00:28:37;;;;;;;7.97;3.10;;;;;;;;;;5032286;28;20520;-81
2023/07/02 00:31:05;;;;;;;7.33;2.67;;;;;;;;;;5032778;28;20451;-82
2023/07/02 00:33:33;;;;;;;12.17;3.63;;;;;;;;;;5033562;28;20601;-81
2023/07/02 00:36:01;;;;;;;4.60;2.73;;;;;;;;;;5031840;28;20479;-82
2023/07/02 00:38:29;;;;;;;5.10;2.50;;;;;;;;;;5028828;28;20470;-82
2023/07/02 00:40:57;;;;;;;3.70;2.40;;;;;;;;;;5010090;28;20751;-81
2023/07/02 00:43:28;;;;;;;6.50;3.10;;;;;;;;;;5007170;28;20551;-80
2023/07/02 00:46:02;;;;;;;10.80;3.77;;;;;;;;;;5009781;28;20452;-83
2023/07/02 00:48:37;;;;;;;9.67;3.20;;;;;;;;;;5010219;28;20451;-80
2023/07/02 00:51:06;;;;;;;9.13;3.20;;;;;;;;;;4994679;28;20463;-80
2023/07/02 00:53:33;;;;;;;5.20;3.27;;;;;;;;;;5011802;28;20456;-81
2023/07/02 00:56:01;;;;;;;5.90;2.53;;;;;;;;;;5009717;28;20502;-80
2023/07/02 00:58:31;;;;;;;5.77;3.30;;;;;;;;;;5010559;28;20446;-79
2023/07/02 01:00:58;;;;;;;8.30;2.70;;;;;;;;;;5010666;28;20508;-81
2023/07/02 01:03:26;;;;;;;5.80;2.80;;;;;;;;;;5009909;28;21044;-81
2023/07/02 01:05:54;;;;;;;6.13;2.90;;;;;;;;;;5008111;28;20627;-82
2023/07/02 01:08:24;;;;;;;6.57;3.23;;;;;;;;;;5009639;28;20478;-79
2023/07/02 01:10:58;;;;;;;9.30;3.00;;;;;;;;;;5007886;28;20558;-80
2023/07/02 01:13:30;;;;;;;5.80;3.03;;;;;;;;;;5007573;28;20444;-80
2023/07/02 01:15:58;;;;;;;8.87;2.70;;;;;;;;;;5007226;28;20534;-79
2023/07/02 01:18:26;;;;;;;5.80;2.60;;;;;;;;;;5006600;28;20452;-82
2023/07/02 01:20:55;;;;;;;7.63;2.53;;;;;;;;;;5008983;28;20448;-80
2023/07/02 01:23:22;;;;;;;6.70;2.60;;;;;;;;;;5009565;28;20456;-82
2023/07/02 01:25:53;;;;;;;6.83;3.23;;;;;;;;;;5007225;28;20790;-82
2023/07/02 01:28:23;;;;;;;4.07;2.27;;;;;;;;;;5007123;28;20761;-81
2023/07/02 01:30:51;;;;;;;7.10;2.93;;;;;;;;;;5005932;28;20464;-82
2023/07/02 01:33:18;;;;;;;5.30;3.17;;;;;;;;;;5008551;28;20452;-80
2023/07/02 01:35:46;;;;;;;3.70;2.27;;;;;;;;;;5002570;28;20484;-81
2023/07/02 01:38:15;;;;;;;6.40;2.83;;;;;;;;;;5008577;28;20686;-81
2023/07/02 01:40:42;;;;;;;5.60;2.33;;;;;;;;;;5025752;28;20458;-80
2023/07/02 01:43:10;;;;;;;4.53;2.80;;;;;;;;;;5027251;28;20483;-82
2023/07/02 01:45:38;;;;;;;4.87;2.33;;;;;;;;;;5026363;28;20502;-80
2023/07/02 01:48:06;;;;;;;5.97;2.70;;;;;;;;;;5027806;28;20862;-82
2023/07/02 01:50:33;;;;;;;7.43;3.20;;;;;;;;;;5028110;28;20465;-82
2023/07/02 01:53:01;;;;;;;5.83;2.13;;;;;;;;;;5027970;28;20573;-81
2023/07/02 01:55:30;;;;;;;4.83;3.00;;;;;;;;;;5028202;28;20483;-82
2023/07/02 01:57:57;;;;;;;4.10;2.63;;;;;;;;;;5028607;28;20783;-82
2023/07/02 02:00:25;;;;;;;6.50;2.80;;;;;;;;;;5027686;28;20498;-81
2023/07/02 02:02:52;;;;;;;8.57;2.93;;;;;;;;;;5028407;28;20474;-82
2023/07/02 02:05:20;;;;;;;7.23;3.03;;;;;;;;;;5027435;28;20458;-79
2023/07/02 02:07:47;;;;;;;4.47;2.80;;;;;;;;;;5028007;28;20469;-82
2023/07/02 02:10:16;;;;;;;4.97;2.87;;;;;;;;;;5025440;28;20788;-82
2023/07/02 02:12:45;;;;;;;5.20;2.90;;;;;;;;;;5026748;28;20451;-82
2023/07/02 02:15:14;;;;;;;7.10;3.03;;;;;;;;;;5029050;28;20471;-79
2023/07/02 02:17:41;;;;;;;4.80;2.53;;;;;;;;;;5023602;28;20494;-80
2023/07/02 02:20:10;;;;;;;8.53;3.53;;;;;;;;;;5023975;28;20452;-82
2023/07/02 02:22:37;;;;;;;6.50;3.43;;;;;;;;;;5024020;28;20470;-80
2023/07/02 02:25:05;;;;;;;5.13;2.60;;;;;;;;;;5025204;28;20444;-82
2023/07/02 02:27:32;;;;;;;6.67;3.00;;;;;;;;;;5025684;28;20549;-81
2023/07/02 02:30:01;;;;;;;5.33;3.30;;;;;;;;;;5026551;28;20455;-81
2023/07/02 02:32:34;;;;;;;6.73;3.40;;;;;;;;;;5023583;28;20546;-81
2023/07/02 02:35:02;;;;;;;4.57;2.60;;;;;;;;;;5025397;28;20483;-80
2023/07/02 02:37:29;;;;;;;5.30;2.47;;;;;;;;;;5028690;28;20459;-83
2023/07/02 02:39:57;;;;;;;5.63;2.70;;;;;;;;;;5029222;28;20456;-83
2023/07/02 02:42:25;;;;;;;6.30;3.67;;;;;;;;;;5027778;28;20459;-82
2023/07/02 02:44:56;;;;;;;6.97;2.97;;;;;;;;;;5027572;28;20459;-82
2023/07/02 02:47:25;;;;;;;4.90;2.87;;;;;;;;;;5029124;28;20465;-82
2023/07/02 02:49:52;;;;;;;5.67;3.40;;;;;;;;;;5027109;28;20461;-81
2023/07/02 02:52:20;;;;;;;6.50;3.40;;;;;;;;;;5025876;28;20542;-81
2023/07/02 02:54:47;;;;;;;7.10;2.93;;;;;;;;;;5029526;28;20491;-81
2023/07/02 02:57:15;;;;;;;5.77;3.10;;;;;;;;;;5029210;28;20772;-80
2023/07/02 02:59:43;;;;;;;4.27;3.00;;;;;;;;;;5027847;28;20461;-80
2023/07/02 03:02:11;;;;;;;5.50;2.60;;;;;;;;;;5032726;28;20451;-81
2023/07/02 03:04:41;;;;;;;9.63;2.90;;;;;;;;;;5029709;28;20459;-82
2023/07/02 03:07:08;;;;;;;6.17;2.53;;;;;;;;;;5029106;28;20519;-80
2023/07/02 03:09:36;;;;;;;6.57;4.40;;;;;;;;;;5032627;28;20483;-80
2023/07/02 03:12:03;;;;;;;5.27;2.63;;;;;;;;;;5031511;28;20466;-80
2023/07/02 03:14:31;;;;;;;7.27;2.80;;;;;;;;;;5026361;28;20519;-79
2023/07/02 03:17:00;;;;;;;9.43;2.90;;;;;;;;;;5032902;28;20450;-82
2023/07/02 03:19:28;;;;;;;6.07;2.90;;;;;;;;;;5031519;28;20487;-82
2023/07/02 03:21:57;;;;;;;9.63;3.10;;;;;;;;;;5029380;28;20539;-81
2023/07/02 03:24:24;;;;;;;5.23;2.70;;;;;;;;;;5033695;28;20463;-82
2023/07/02 03:26:55;;;;;;;5.53;2.97;;;;;;;;;;5031294;28;20514;-81
2023/07/02 03:29:22;;;;;;;6.83;3.27;;;;;;;;;;5028293;28;20479;-82
2023/07/02 03:31:50;;;;;;;8.30;3.03;;;;;;;;;;5029731;28;20791;-80
2023/07/02 03:34:18;;;;;;;5.07;2.73;;;;;;;;;;5030627;28;20453;-80
2023/07/02 03:36:50;;;;;;;5.20;3.30;;;;;;;;;;5028752;28;20751;-81
2023/07/02 03:39:21;;;;;;;8.40;3.40;;;;;;;;;;5020273;28;20468;-83
2023/07/02 03:41:48;;;;;;;11.20;3.07;;;;;;;;;;5012268;28;20459;-80
2023/07/02 03:44:17;;;;;;;7.47;3.43;;;;;;;;;;5009992;28;20566;-79
2023/07/02 03:46:44;;;;;;;10.60;2.93;;;;;;;;;;5010171;28;20448;-82
2023/07/02 03:49:12;;;;;;;5.40;2.50;;;;;;;;;;5013898;28;20746;-82
2023/07/02 03:51:40;;;;;;;4.70;2.77;;;;;;;;;;5012881;28;20456;-81
2023/07/02 03:54:08;;;;;;;10.70;3.33;;;;;;;;;;5010689;28;20452;-79
2023/07/02 03:56:55;;;;;;;6.90;3.50;;;;;;;;;;5010980;28;20554;-82
2023/07/02 03:59:32;;;;;;;7.83;2.80;;;;;;;;;;5010121;28;20444;-80
2023/07/02 04:02:00;;;;;;;8.60;4.13;;;;;;;;;;5011398;28;20448;-81
2023/07/02 04:04:27;;;;;;;9.10;3.10;;;;;;;;;;5007703;28;20436;-81
2023/07/02 04:06:55;;;;;;;5.20;2.87;;;;;;;;;;5010821;28;20463;-80
2023/07/02 04:09:22;;;;;;;6.70;3.10;;;;;;;;;;5008756;28;20518;-81
2023/07/02 04:11:54;;;;;;;8.93;3.50;;;;;;;;;;5006581;28;20862;-81
2023/07/02 04:14:22;;;;;;;6.40;3.33;;;;;;;;;;5008904;28;20467;-81
2023/07/02 04:16:54;;;;;;;8.93;3.30;;;;;;;;;;5006247;28;20488;-80
2023/07/02 04:19:23;;;;;;;10.40;3.47;;;;;;;;;;5008794;28;20468;-81
2023/07/02 04:21:52;;;;;;;7.17;3.37;;;;;;;;;;5007468;28;20463;-80
2023/07/02 04:24:25;;;;;;;8.43;4.20;;;;;;;;;;5009019;28;20460;-80
2023/07/02 04:26:56;;;;;;;9.93;3.30;;;;;;;;;;5008782;28;20441;-83
2023/07/02 04:29:25;;;;;;;12.37;3.43;;;;;;;;;;5008245;28;21008;-81
2023/07/02 04:31:53;;;;;;;7.20;3.13;;;;;;;;;;5008423;28;20547;-80
2023/07/02 04:34:24;;;;;;;8.40;3.70;;;;;;;;;;4990642;28;20500;-79
2023/07/02 04:36:53;;;;;;;8.63;4.43;;;;;;;;;;4989682;28;20506;-79
2023/07/02 04:39:28;;;;;;;9.27;3.47;;;;;;;;;;5000293;28;20885;-81
2023/07/02 04:42:03;;;;;;;11.00;3.70;;;;;;;;;;5011703;28;20494;-80
2023/07/02 04:44:34;;;;;;;8.53;3.53;;;;;;;;;;5011686;28;20523;-80
2023/07/02 04:47:02;;;;;;;6.40;3.57;;;;;;;;;;5009776;28;20761;-81
2023/07/02 04:49:31;;;;;;;12.17;3.53;;;;;;;;;;5012009;28;20463;-81
2023/07/02 04:52:01;;;;;;;10.43;4.23;;;;;;;;;;5008449;28;20448;-81
2023/07/02 04:54:30;;;;;;;10.00;3.60;;;;;;;;;;5010078;28;20538;-81
2023/07/02 04:57:05;;;;;;;8.57;4.37;;;;;;;;;;5011440;28;20507;-80
2023/07/02 04:59:36;;;;;;;8.10;3.27;;;;;;;;;;5008337;28;20952;-80
2023/07/02 05:02:08;;;;;;;9.60;3.53;;;;;;;;;;5009075;28;20428;-80
2023/07/02 05:04:37;;;;;;;10.33;5.40;;;;;;;;;;5004785;28;20479;-79
2023/07/02 05:07:10;;;;;;;12.10;2.90;;;;;;;;;;5008193;28;20535;-79
2023/07/02 05:09:43;;;;;;;8.67;3.03;;;;;;;;;;5007446;28;20456;-79
2023/07/02 05:12:13;;;;;;;12.83;4.17;;;;;;;;;;5005880;28;20590;-79
2023/07/02 05:14:43;;;;;;;7.77;4.10;;;;;;;;;;5007646;28;20452;-82
2023/07/02 05:17:14;;;;;;;8.57;3.80;;;;;;;;;;5005442;28;20506;-80
2023/07/02 05:19:42;;;;;;;7.63;3.43;;;;;;;;;;5007563;28;20452;-79
2023/07/02 05:22:18;;;;;;;9.67;4.00;;;;;;;;;;5005306;28;20467;-81
2023/07/02 05:24:46;;;;;;;9.33;3.47;;;;;;;;;;5011635;28;20826;-81
2023/07/02 05:27:16;;;;;;;8.70;3.30;;;;;;;;;;5007216;28;20546;-81
2023/07/02 05:29:54;;;;;;;12.73;5.70;;;;;;;;;;5008497;28;20726;-81
2023/07/02 05:32:22;;;;;;;11.63;3.97;;;;;;;;;;5013143;28;20467;-80
2023/07/02 05:34:50;;;;;;;12.17;4.73;;;;;;;;;;5008114;28;20487;-81
2023/07/02 05:37:18;;;;;;;9.03;3.67;;;;;;;;;;5007917;28;20488;-80
2023/07/02 05:39:45;;;;;;;15.60;4.70;;;;;;;;;;4996924;28;20449;-80
2023/07/02 05:42:13;;;;;;;10.50;3.50;;;;;;;;;;4987967;28;20469;-81
2023/07/02 05:44:42;;;;;;;9.47;4.60;;;;;;;;;;4986172;28;20588;-81
2023/07/02 05:47:10;;;;;;;8.53;3.60;;;;;;;;;;4991239;28;20449;-80
2023/07/02 05:49:41;;;;;;;8.93;3.70;;;;;;;;;;4985421;28;20457;-81
2023/07/02 05:52:08;;;;;;;8.83;4.60;;;;;;;;;;4985806;28;20574;-80
2023/07/02 05:54:36;;;;;;;10.20;3.90;;;;;;;;;;4989009;28;20520;-81
2023/07/02 05:57:04;;;;;;;10.73;4.70;;;;;;;;;;4986432;28;20488;-81
2023/07/02 05:59:32;;;;;;;10.27;4.20;;;;;;;;;;4989907;28;20489;-82
2023/07/02 06:02:01;;;;;;;16.23;4.83;;;;;;;;;;4988663;28;20863;-80
2023/07/02 06:04:30;;;;;;;10.73;4.90;;;;;;;;;;4987891;28;20468;-80
2023/07/02 06:06:59;;;;;;;13.30;5.40;;;;;;;;;;4989657;28;20457;-81
2023/07/02 06:09:29;;;;;;;14.07;4.87;;;;;;;;;;4986821;28;20794;-80
2023/07/02 06:11:56;;;;;;;9.70;4.10;;;;;;;;;;4989035;28;20445;-81
2023/07/02 06:14:25;;;;;;;12.20;3.90;;;;;;;;;;4985829;28;20457;-80
2023/07/02 06:16:55;;;;;;;10.30;4.87;;;;;;;;;;4985636;28;20480;-80
2023/07/02 06:19:24;;;;;;;8.40;3.70;;;;;;;;;;4989170;28;20525;-81
2023/07/02 06:21:51;;;;;;;10.77;4.30;;;;;;;;;;4985578;28;20459;-80
2023/07/02 06:24:20;;;;;;;10.87;4.70;;;;;;;;;;4988372;28;20449;-81
2023/07/02 06:26:54;;;;;;;13.60;4.93;;;;;;;;;;4989453;28;20521;-80
2023/07/02 06:29:21;;;;;;;12.37;3.90;;;;;;;;;;4986067;28;20571;-81
2023/07/02 06:31:49;;;;;;;17.50;5.17;;;;;;;;;;4989431;28;20468;-81
2023/07/02 06:34:16;;;;;;;12.07;4.23;;;;;;;;;;4991022;28;20448;-81
2023/07/02 06:36:53;;;;;;;10.47;5.00;;;;;;;;;;4989993;28;20560;-79
2023/07/02 06:39:21;;;;;;;11.97;4.33;;;;;;;;;;5001529;28;20463;-80
2023/07/02 06:41:48;;;;;;;13.03;4.40;;;;;;;;;;5010301;28;20503;-80
2023/07/02 06:44:15;;;;;;;23.57;4.30;;;;;;;;;;5007838;28;20495;-80
2023/07/02 06:46:43;;;;;;;15.87;4.77;;;;;;;;;;5009520;28;20456;-81
2023/07/02 06:49:11;;;;;;;12.63;4.83;;;;;;;;;;5009708;28;20471;-81
2023/07/02 06:51:38;;;;;;;13.60;5.50;;;;;;;;;;5010466;28;20459;-80
2023/07/02 06:54:08;;;;;;;10.23;4.50;;;;;;;;;;5011024;28;20459;-82
2023/07/02 06:56:38;;;;;;;12.73;4.60;;;;;;;;;;5008978;28;20488;-81
2023/07/02 06:59:07;;;;;;;16.00;4.00;;;;;;;;;;5009359;28;20467;-80
2023/07/02 07:01:36;;;;;;;13.23;5.73;;;;;;;;;;5009944;28;20467;-80
2023/07/02 07:04:03;;;;;;;12.33;5.10;;;;;;;;;;5009332;28;20463;-81
2023/07/02 07:06:31;;;;;;;13.60;4.80;;;;;;;;;;5007401;28;20829;-80
2023/07/02 07:09:00;;;;;;;12.90;4.20;;;;;;;;;;5009808;28;20456;-81
2023/07/02 07:11:29;;;;;;;18.53;5.23;;;;;;;;;;5009450;28;20858;-80
2023/07/02 07:13:57;;;;;;;13.60;4.70;;;;;;;;;;5008199;28;20464;-83
2023/07/02 07:16:24;;;;;;;12.17;5.47;;;;;;;;;;5008251;28;20520;-79
2023/07/02 07:18:52;;;;;;;13.97;5.17;;;;;;;;;;5011206;28;20463;-79
2023/07/02 07:21:19;;;;;;;8.40;4.20;;;;;;;;;;5010178;28;20463;-80
2023/07/02 07:23:47;;;;;;;16.20;5.37;;;;;;;;;;5008458;28;20803;-80
2023/07/02 07:26:14;;;;;;;15.40;4.80;;;;;;;;;;5008444;28;20467;-81
2023/07/02 07:28:43;;;;;;;12.37;5.40;;;;;;;;;;5011325;28;20498;-79
2023/07/02 07:31:11;;;;;;;13.07;6.87;;;;;;;;;;5010432;28;20456;-82
2023/07/02 07:33:42;;;;;;;11.50;3.80;;;;;;;;;;5008824;28;20452;-81
2023/07/02 07:36:14;;;;;;;13.20;5.40;;;;;;;;;;5009909;28;20456;-82
2023/07/02 07:38:50;;;;;;;16.70;4.60;;;;;;;;;;5010062;28;20448;-82
2023/07/02 07:41:21;;;;;;;15.33;5.80;;;;;;;;;;5008552;28;20460;-82
2023/07/02 07:43:52;;;;;;;18.07;5.00;;;;;;;;;;5009629;28;20434;-82
2023/07/02 07:46:22;;;;;;;12.07;6.00;;;;;;;;;;5008160;28;20475;-82
2023/07/02 07:48:50;;;;;;;12.33;5.00;;;;;;;;;;5007147;28;20559;-81
2023/07/02 07:51:17;;;;;;;11.43;5.20;;;;;;;;;;5009398;28;20448;-81
2023/07/02 07:53:48;;;;;;;14.33;5.07;;;;;;;;;;5009828;28;20474;-82
2023/07/02 07:56:16;;;;;;;17.10;6.17;;;;;;;;;;5006643;28;20496;-83
2023/07/02 07:58:43;;;;;;;12.07;4.50;;;;;;;;;;5007878;28;20472;-80
2023/07/02 08:01:12;;;;;;;15.63;5.57;;;;;;;;;;5006969;28;20733;-80
2023/07/02 08:03:40;;;;;;;15.10;4.83;;;;;;;;;;5004095;28;20449;-81
2023/07/02 08:06:07;;;;;;;13.40;5.40;;;;;;;;;;5004562;28;20452;-81
2023/07/02 08:08:35;;;;;;;15.10;5.30;;;;;;;;;;5008052;28;20715;-80
2023/07/02 08:11:02;;;;;;;11.30;4.63;;;;;;;;;;5005105;28;20548;-81
2023/07/02 08:13:30;;;;;;;16.40;5.80;;;;;;;;;;5010010;28;20463;-82
2023/07/02 08:15:57;;;;;;;9.60;4.70;;;;;;;;;;5008913;28;20456;-81
2023/07/02 08:18:27;;;;;;;15.93;5.47;;;;;;;;;;5005533;28;20496;-80
2023/07/02 08:20:56;;;;;;;12.40;4.80;;;;;;;;;;5009651;28;20548;-80
2023/07/02 08:23:24;;;;;;;11.10;5.50;;;;;;;;;;5007104;28;20456;-79
2023/07/02 08:25:52;;;;;;;17.87;6.00;;;;;;;;;;5005513;28;20537;-81
2023/07/02 08:28:19;;;;;;;13.80;4.77;;;;;;;;;;5002830;28;20480;-81
2023/07/02 08:30:47;;;;;;;13.43;4.80;;;;;;;;;;5008435;28;20552;-81
2023/07/02 08:33:14;;;;;;;9.60;3.97;;;;;;;;;;5007819;28;20463;-80
2023/07/02 08:35:49;;;;;;;14.40;4.93;;;;;;;;;;5006298;28;20480;-80
2023/07/02 08:38:16;;;;;;;10.00;4.67;;;;;;;;;;5004267;28;20844;-82
2023/07/02 08:40:44;;;;;;;13.87;5.23;;;;;;;;;;5007082;28;20460;-79
2023/07/02 08:43:11;;;;;;;9.77;4.77;;;;;;;;;;5005001;28;20493;-80
2023/07/02 08:45:39;;;;;;;10.50;5.00;;;;;;;;;;5004209;28;20661;-81
2023/07/02 08:48:07;;;;;;;8.27;3.80;;;;;;;;;;5006559;28;20436;-81
2023/07/02 08:50:35;;;;;;;12.63;4.47;;;;;;;;;;5005569;28;20779;-81
2023/07/02 08:53:04;;;;;;;11.50;4.07;;;;;;;;;;5005901;28;20460;-81
2023/07/02 08:55:32;;;;;;;9.73;4.50;;;;;;;;;;5009325;28;20732;-81
2023/07/02 08:58:00;;;;;;;13.30;4.30;;;;;;;;;;5005062;28;20502;-80
2023/07/02 09:00:30;;;;;;;14.73;4.50;;;;;;;;;;5006215;28;20460;-81
2023/07/02 09:02:58;;;;;;;9.00;4.13;;;;;;;;;;5007103;28;20464;-82
2023/07/02 09:05:25;;;;;;;11.23;3.70;;;;;;;;;;5005816;28;20471;-82
2023/07/02 09:07:53;;;;;;;10.03;3.60;;;;;;;;;;5004649;28;20460;-79
2023/07/02 09:10:32;;;;;;;10.60;4.07;;;;;;;;;;5002410;28;20451;-82
2023/07/02 09:13:06;;;;;;;8.40;3.80;;;;;;;;;;5002432;28;20456;-80
2023/07/02 09:15:37;;;;;;;12.90;5.07;;;;;;;;;;5004242;28;20451;-80
2023/07/02 09:18:05;;;;;;;14.20;4.57;;;;;;;;;;5002780;28;20981;-82
2023/07/02 09:20:34;;;;;;;12.53;4.30;;;;;;;;;;5003362;28;20526;-81
2023/07/02 09:23:04;;;;;;;13.83;4.27;;;;;;;;;;5003882;28;20551;-80
2023/07/02 09:25:38;;;;;;;12.37;5.70;;;;;;;;;;5005101;28;20772;-80
2023/07/02 09:28:23;;;;;;;11.43;4.53;;;;;;;;;;5003290;28;20503;-81
2023/07/02 09:30:54;;;;;;;11.93;5.20;;;;;;;;;;4987241;28;20551;-79
2023/07/02 09:33:23;;;;;;;11.80;4.40;;;;;;;;;;5004525;28;20463;-81
2023/07/02 09:35:51;;;;;;;12.13;4.50;;;;;;;;;;5003067;28;20456;-80
2023/07/02 09:38:19;;;;;;;15.00;4.67;;;;;;;;;;5006015;28;20479;-82
2023/07/02 09:40:49;;;;;;;8.60;4.10;;;;;;;;;;5002435;28;20584;-81
2023/07/02 09:43:20;;;;;;;12.33;4.07;;;;;;;;;;5003730;28;20570;-80
2023/07/02 09:45:50;;;;;;;10.30;4.97;;;;;;;;;;5005831;28;20684;-81
2023/07/02 09:48:21;;;;;;;10.97;4.33;;;;;;;;;;5001664;28;20870;-82
2023/07/02 09:50:51;;;;;;;9.77;4.70;;;;;;;;;;5000792;28;20578;-80
2023/07/02 09:53:19;;;;;;;15.50;4.80;;;;;;;;;;5002553;28;20480;-83
2023/07/02 09:55:47;;;;;;;11.60;4.63;;;;;;;;;;5004914;28;20460;-81
2023/07/02 09:58:18;;;;;;;11.70;3.90;;;;;;;;;;5004685;28;20488;-81
2023/07/02 10:00:48;;;;;;;14.50;4.73;;;;;;;;;;5002340;28;20538;-82
2023/07/02 10:03:16;;;;;;;11.43;4.17;;;;;;;;;;5006094;28;20531;-80
2023/07/02 10:05:43;;;;;;;12.37;4.00;;;;;;;;;;5007374;28;20466;-79
2023/07/02 10:08:17;;;;;;;6.63;3.40;;;;;;;;;;5005451;28;20471;-81
2023/07/02 10:10:45;;;;;;;9.70;3.40;;;;;;;;;;5003174;28;20534;-81
2023/07/02 10:13:13;;;;;;;12.17;3.83;;;;;;;;;;5009192;28;20456;-80
2023/07/02 10:15:43;;;;;;;16.00;5.13;;;;;;;;;;5003162;28;20462;-81
2023/07/02 10:18:10;;;;;;;8.43;3.60;;;;;;;;;;4987422;28;20512;-80
2023/07/02 10:20:39;;;;;;;8.20;2.60;;;;;;;;;;4991919;28;20573;-81
2023/07/02 10:23:08;;;;;;;8.43;3.90;;;;;;;;;;4989069;28;20650;-80
2023/07/02 10:25:37;;;;;;;11.30;4.00;;;;;;;;;;4987855;28;20488;-81
2023/07/02 10:28:15;;;;;;;7.20;3.20;;;;;;;;;;4987124;28;20514;-81
2023/07/02 10:30:44;;;;;;;9.27;3.43;;;;;;;;;;4991688;28;20453;-79
2023/07/02 10:33:12;;;;;;;13.87;5.00;;;;;;;;;;4987339;28;20453;-80
2023/07/02 10:35:44;;;;;;;14.93;3.13;;;;;;;;;;4986749;28;20547;-81
2023/07/02 10:38:16;;;;;;;9.23;3.23;;;;;;;;;;4991236;28;20495;-82
2023/07/02 10:40:44;;;;;;;6.90;2.70;;;;;;;;;;5005546;28;20451;-81
2023/07/02 10:43:11;;;;;;;5.40;2.00;;;;;;;;;;5009752;28;21033;-80
2023/07/02 10:45:39;;;;;;;8.70;3.30;;;;;;;;;;5009691;28;20679;-81
2023/07/02 10:48:11;;;;;;;7.80;3.10;;;;;;;;;;5005457;28;20475;-79
2023/07/02 10:50:39;;;;;;;8.87;3.93;;;;;;;;;;5008034;28;20540;-80
2023/07/02 10:53:21;;;;;;;8.03;3.20;;;;;;;;;;5008782;28;20456;-80
2023/07/02 10:55:57;;;;;;;7.80;3.33;;;;;;;;;;5009425;28;20454;-81
2023/07/02 10:58:25;;;;;;;8.03;3.60;;;;;;;;;;5008189;28;20491;-81
2023/07/02 11:00:55;;;;;;;10.13;3.53;;;;;;;;;;5008470;28;20467;-80
2023/07/02 11:03:41;;;;;;;;;;;;;;;;;;;;;
2023/07/02 11:06:18;;;;;;;9.57;3.53;;;;;;;;;;5005902;28;20516;-80
2023/07/02 11:08:48;;;;;;;10.03;3.83;;;;;;;;;;5007381;28;20510;-81
2023/07/02 11:11:16;;;;;;;9.47;3.70;;;;;;;;;;5008605;28;20444;-80
2023/07/02 11:13:47;;;;;;;10.37;3.60;;;;;;;;;;5006370;28;21008;-82
2023/07/02 11:16:25;;;;;;;9.00;3.70;;;;;;;;;;5010405;28;20452;-81
2023/07/02 11:18:55;;;;;;;11.70;4.20;;;;;;;;;;5008239;28;20479;-79
2023/07/02 11:21:22;;;;;;;15.27;3.57;;;;;;;;;;5004456;28;20624;-82
2023/07/02 11:23:50;;;;;;;5.70;3.37;;;;;;;;;;5008692;28;20456;-80
2023/07/02 11:26:17;;;;;;;11.63;4.80;;;;;;;;;;5007816;28;20546;-80
2023/07/02 11:28:52;;;;;;;8.90;3.03;;;;;;;;;;5007701;28;20914;-81
2023/07/02 11:31:29;;;;;;;12.03;4.17;;;;;;;;;;5005727;28;20455;-80
2023/07/02 11:33:58;;;;;;;12.40;4.33;;;;;;;;;;5007251;28;20439;-82
2023/07/02 11:36:29;;;;;;;9.47;3.27;;;;;;;;;;5007315;28;20532;-81
2023/07/02 11:38:58;;;;;;;10.10;3.40;;;;;;;;;;5008216;28;20502;-81
2023/07/02 11:41:26;;;;;;;9.20;4.10;;;;;;;;;;5008618;28;20460;-81
2023/07/02 11:43:53;;;;;;;6.40;3.40;;;;;;;;;;5005290;28;20457;-80
2023/07/02 11:46:20;;;;;;;7.57;4.10;;;;;;;;;;5005278;28;20449;-80
2023/07/02 11:48:48;;;;;;;12.53;3.77;;;;;;;;;;5004618;28;20506;-81
2023/07/02 11:51:16;;;;;;;11.47;3.60;;;;;;;;;;5007515;28;20526;-80
2023/07/02 11:53:44;;;;;;;14.53;4.43;;;;;;;;;;5004081;28;20529;-78
2023/07/02 11:56:12;;;;;;;15.20;6.40;;;;;;;;;;5004738;28;20443;-79
2023/07/02 11:58:40;;;;;;;9.37;2.90;;;;;;;;;;5001739;28;21171;-79
2023/07/02 12:01:08;;;;;;;7.40;3.23;;;;;;;;;;5000855;28;20522;-79
2023/07/02 12:03:35;;;;;;;6.33;3.03;;;;;;;;;;5000971;28;20510;-79
2023/07/02 12:06:03;;;;;;;7.07;3.00;;;;;;;;;;5007356;28;20483;-80
2023/07/02 12:08:32;;;;;;;7.30;2.73;;;;;;;;;;5007691;28;20504;-79
2023/07/02 12:10:59;;;;;;;13.33;2.07;;;;;;;;;;5002826;28;20472;-79
2023/07/02 12:13:27;;;;;;;7.77;2.70;;;;;;;;;;5006982;28;20502;-80
2023/07/02 12:15:55;;;;;;;8.20;2.90;;;;;;;;;;5005723;28;20545;-79
2023/07/02 12:18:23;;;;;;;8.73;2.83;;;;;;;;;;5006231;28;20496;-79
2023/07/02 12:20:51;;;;;;;8.97;3.33;;;;;;;;;;5002455;28;20949;-79
2023/07/02 12:23:19;;;;;;;10.27;3.10;;;;;;;;;;5007061;28;20511;-79
2023/07/02 12:25:48;;;;;;;7.90;3.30;;;;;;;;;;5005709;28;20475;-78
2023/07/02 12:28:16;;;;;;;10.40;2.60;;;;;;;;;;5008099;28;20479;-79
2023/07/02 12:30:43;;;;;;;7.93;3.07;;;;;;;;;;5003471;28;20464;-79
2023/07/02 12:33:11;;;;;;;7.03;3.13;;;;;;;;;;5003744;28;20456;-80
2023/07/02 12:35:41;;;;;;;10.50;3.07;;;;;;;;;;5002957;28;20462;-79
2023/07/02 12:38:08;;;;;;;8.10;2.60;;;;;;;;;;5000276;28;20956;-79
2023/07/02 12:40:36;;;;;;;6.93;2.90;;;;;;;;;;5004212;28;20561;-78
2023/07/02 12:43:04;;;;;;;7.23;2.20;;;;;;;;;;5003703;28;20486;-80
2023/07/02 12:45:32;;;;;;;6.73;3.20;;;;;;;;;;5002170;28;20499;-78
2023/07/02 12:48:00;;;;;;;7.10;2.30;;;;;;;;;;5004737;28;20456;-79
2023/07/02 12:50:27;;;;;;;8.50;3.50;;;;;;;;;;5003086;28;20726;-79
2023/07/02 12:52:55;;;;;;;7.73;3.03;;;;;;;;;;5001919;28;20740;-79
2023/07/02 12:55:23;;;;;;;5.90;2.20;;;;;;;;;;5001839;28;20526;-80
2023/07/02 12:57:50;;;;;;;6.70;2.80;;;;;;;;;;4983200;28;20805;-78
2023/07/02 13:00:20;;;;;;;5.67;2.07;;;;;;;;;;4983319;28;20472;-79
2023/07/02 13:02:50;;;;;;;4.73;1.53;;;;;;;;;;4985093;28;20489;-79
2023/07/02 13:05:18;;;;;;;6.23;2.10;;;;;;;;;;4985999;28;20459;-79
2023/07/02 13:07:46;;;;;;;5.23;1.90;;;;;;;;;;4984515;28;20471;-77
2023/07/02 13:10:14;;;;;;;6.53;2.10;;;;;;;;;;4986401;28;20998;-78
2023/07/02 13:12:42;;;;;;;7.20;2.43;;;;;;;;;;4982333;28;20528;-79
2023/07/02 13:15:11;;;;;;;6.90;3.10;;;;;;;;;;4986586;28;20859;-78
2023/07/02 13:17:41;;;;;;;6.20;2.27;;;;;;;;;;4985723;28;20455;-79
2023/07/02 13:20:09;;;;;;;7.53;2.40;;;;;;;;;;4983670;28;21186;-79
2023/07/02 13:22:37;;;;;;;6.60;2.00;;;;;;;;;;4989204;28;20457;-78
2023/07/02 13:25:08;;;;;;;6.37;2.53;;;;;;;;;;4986555;28;20480;-79
2023/07/02 13:27:36;;;;;;;8.73;3.13;;;;;;;;;;4984089;28;20479;-78
2023/07/02 13:30:06;;;;;;;6.23;2.77;;;;;;;;;;4983239;28;20543;-79
2023/07/02 13:32:42;;;;;;;8.43;2.70;;;;;;;;;;4982878;28;20452;-81
2023/07/02 13:35:10;;;;;;;10.53;2.80;;;;;;;;;;4982017;28;20455;-78
2023/07/02 13:37:45;;;;;;;5.83;2.33;;;;;;;;;;4982718;28;20452;-78
2023/07/02 13:40:16;;;;;;;5.90;1.90;;;;;;;;;;4997484;28;20461;-79
2023/07/02 13:42:44;;;;;;;5.70;2.37;;;;;;;;;;5000886;28;20471;-79
2023/07/02 13:45:12;;;;;;;8.97;2.97;;;;;;;;;;5003708;28;20459;-79
2023/07/02 13:47:39;;;;;;;5.97;2.17;;;;;;;;;;5002550;28;20555;-78
2023/07/02 13:50:12;;;;;;;8.20;2.40;;;;;;;;;;5002142;28;20487;-78
2023/07/02 13:52:40;;;;;;;5.10;1.90;;;;;;;;;;4999232;28;20471;-78
2023/07/02 13:55:08;;;;;;;5.47;2.07;;;;;;;;;;4999962;28;20460;-78
2023/07/02 13:57:35;;;;;;;5.03;1.83;;;;;;;;;;5002869;28;20559;-79
2023/07/02 14:00:11;;;;;;;4.30;2.10;;;;;;;;;;4999556;28;20488;-78
2023/07/02 14:02:39;;;;;;;6.63;2.07;;;;;;;;;;5006097;28;20491;-78
2023/07/02 14:05:12;;;;;;;9.63;2.33;;;;;;;;;;5003629;28;20456;-78
2023/07/02 14:07:40;;;;;;;6.93;2.40;;;;;;;;;;5003609;28;20461;-79
2023/07/02 14:10:17;;;;;;;4.30;1.53;;;;;;;;;;4999569;28;20448;-79
2023/07/02 14:12:45;;;;;;;7.40;2.57;;;;;;;;;;4994184;28;20484;-79
2023/07/02 14:15:14;;;;;;;6.20;2.20;;;;;;;;;;4979896;28;20513;-79
2023/07/02 14:17:42;;;;;;;6.00;2.50;;;;;;;;;;4987799;28;20440;-78
2023/07/02 14:20:10;;;;;;;6.40;2.40;;;;;;;;;;4981182;28;20851;-79
2023/07/02 14:22:38;;;;;;;7.40;2.40;;;;;;;;;;4977785;28;20889;-78
2023/07/02 14:25:05;;;;;;;5.50;2.33;;;;;;;;;;4986915;28;20453;-78
2023/07/02 14:27:33;;;;;;;11.73;2.40;;;;;;;;;;4984066;28;20520;-78
2023/07/02 14:30:04;;;;;;;5.27;2.10;;;;;;;;;;4984014;28;20445;-80
2023/07/02 14:32:34;;;;;;;5.47;2.00;;;;;;;;;;4982796;28;20464;-80
2023/07/02 14:35:02;;;;;;;7.37;2.13;;;;;;;;;;4983244;28;20488;-79
2023/07/02 14:37:30;;;;;;;5.00;2.20;;;;;;;;;;4983938;28;20473;-80
2023/07/02 14:39:58;;;;;;;9.17;4.43;;;;;;;;;;4997649;28;20509;-79
2023/07/02 14:42:25;;;;;;;7.93;2.70;;;;;;;;;;4998028;28;20531;-78
2023/07/02 14:44:53;;;;;;;6.90;2.20;;;;;;;;;;4999897;28;20464;-77
2023/07/02 14:47:21;;;;;;;8.47;2.57;;;;;;;;;;5001638;28;20475;-79
2023/07/02 14:49:51;;;;;;;8.40;2.23;;;;;;;;;;5002715;28;20472;-78